Aérodrome :







RETROUVEZ-NOUS SUR...

 
LOGIN :

S'inscrire | Disclaimer

   EN    FR    IT 

 









Légende :    VFR   VFR Marginal   IFR   IFR Intensif   IFR Très Intensif
Visi : 
Plafond : 
>= 8 km
>= 3000ft
5 à 8 km
1000 à 3000 ft
1500m à 5 km
500 à 1000 ft
800 à 1500m
200 à 500 ft
< 800m
< 200 ft
Symboles :   Orages  Brouillard  Fortes neiges  Fortes précipitations  Vent > 20 kt






- Altitude de l'aérodrome : 377 ft
- Code IATA : YPS


CYPD - Port Hawkesbury

DERNIER METAR :
  • 241409Z AUTO 29006KT 9SM SCT010 BKN013 M02/M03 A3043 RMK PRESRR SLP310

METARs EXPIRÉS :
  • 241400Z AUTO 29009KT 9SM FEW008 M01/M03 A3041 RMK SLP305
  • 241300Z AUTO 29006KT 9SM SCT180 M02/M03 A3040 RMK SLP302
  • 241200Z AUTO 29007KT 9SM CLR M03/M04 A3038 RMK SLP297

TAF N/A



MET'MAP, la Météo Aéronautique d'un coup d'oeil ! - Copyright ORBIFLY Décembre 2007 - Disclaimer

ORBIFLY MET'MAP TEAM :

Programmation & Développement : Alexandra Zaïnal
Sur une idée originale de : Baudouin d'Aumeries
Assistance à la programmation : Marc-Olivier Méhu
Soutien technique & logistique : Manuel Goepfert

Contact : metmap@orbifly.com




SOURCES & CREDITS :

   NOAA